sensor_id;sensor_type;location;lat;lon;timestamp;temperature;humidity
23073;DHT22;67971;51.046;3.732;2023-05-20T00:01:37;15.20;99.90
23073;DHT22;67971;51.046;3.732;2023-05-20T00:04:03;15.10;99.90
23073;DHT22;67971;51.046;3.732;2023-05-20T00:06:29;15.10;99.90
23073;DHT22;67971;51.046;3.732;2023-05-20T00:08:54;15.10;99.90
23073;DHT22;67971;51.046;3.732;2023-05-20T00:11:20;15.10;99.90
23073;DHT22;67971;51.046;3.732;2023-05-20T00:13:46;15.10;99.90
23073;DHT22;67971;51.046;3.732;2023-05-20T00:16:12;14.90;99.90
23073;DHT22;67971;51.046;3.732;2023-05-20T00:18:38;15.00;99.90
23073;DHT22;67971;51.046;3.732;2023-05-20T00:21:03;15.00;99.90
23073;DHT22;67971;51.046;3.732;2023-05-20T00:23:29;15.00;99.90
23073;DHT22;67971;51.046;3.732;2023-05-20T00:25:54;14.90;99.90
23073;DHT22;67971;51.046;3.732;2023-05-20T00:28:20;15.00;99.90
23073;DHT22;67971;51.046;3.732;2023-05-20T00:30:48;15.00;99.90
23073;DHT22;67971;51.046;3.732;2023-05-20T00:33:13;15.00;99.90
23073;DHT22;67971;51.046;3.732;2023-05-20T00:35:39;15.10;99.90
23073;DHT22;67971;51.046;3.732;2023-05-20T00:38:05;15.00;99.90
23073;DHT22;67971;51.046;3.732;2023-05-20T00:40:30;14.90;99.90
23073;DHT22;67971;51.046;3.732;2023-05-20T00:42:56;14.80;99.90
23073;DHT22;67971;51.046;3.732;2023-05-20T00:45:22;14.80;99.90
23073;DHT22;67971;51.046;3.732;2023-05-20T00:47:48;14.80;99.90
23073;DHT22;67971;51.046;3.732;2023-05-20T00:50:13;14.80;99.90
23073;DHT22;67971;51.046;3.732;2023-05-20T00:52:39;14.80;99.90
23073;DHT22;67971;51.046;3.732;2023-05-20T00:55:08;14.70;99.90
23073;DHT22;67971;51.046;3.732;2023-05-20T00:57:34;14.80;99.90
23073;DHT22;67971;51.046;3.732;2023-05-20T01:00:00;14.80;99.90
23073;DHT22;67971;51.046;3.732;2023-05-20T01:02:25;14.70;99.90
23073;DHT22;67971;51.046;3.732;2023-05-20T01:04:51;14.70;99.90
23073;DHT22;67971;51.046;3.732;2023-05-20T01:07:18;14.70;99.90
23073;DHT22;67971;51.046;3.732;2023-05-20T01:09:44;14.70;99.90
23073;DHT22;67971;51.046;3.732;2023-05-20T01:12:24;14.70;99.90
23073;DHT22;67971;51.046;3.732;2023-05-20T01:14:58;14.60;99.90
23073;DHT22;67971;51.046;3.732;2023-05-20T01:17:30;14.60;99.90
23073;DHT22;67971;51.046;3.732;2023-05-20T01:19:58;14.60;99.90
23073;DHT22;67971;51.046;3.732;2023-05-20T01:22:26;14.70;99.90
23073;DHT22;67971;51.046;3.732;2023-05-20T01:24:52;14.70;99.90
23073;DHT22;67971;51.046;3.732;2023-05-20T01:27:18;14.60;99.90
23073;DHT22;67971;51.046;3.732;2023-05-20T01:29:46;14.60;99.90
23073;DHT22;67971;51.046;3.732;2023-05-20T01:32:37;14.60;99.90
23073;DHT22;67971;51.046;3.732;2023-05-20T01:35:05;14.70;99.90
23073;DHT22;67971;51.046;3.732;2023-05-20T01:37:31;14.70;99.90
23073;DHT22;67971;51.046;3.732;2023-05-20T01:39:59;14.60;99.90
23073;DHT22;67971;51.046;3.732;2023-05-20T01:42:26;14.50;99.90
23073;DHT22;67971;51.046;3.732;2023-05-20T01:44:52;14.30;99.90
23073;DHT22;67971;51.046;3.732;2023-05-20T01:47:18;14.30;99.90
23073;DHT22;67971;51.046;3.732;2023-05-20T01:49:44;14.40;99.90
23073;DHT22;67971;51.046;3.732;2023-05-20T01:52:11;14.30;99.90
23073;DHT22;67971;51.046;3.732;2023-05-20T01:54:36;14.20;99.90
23073;DHT22;67971;51.046;3.732;2023-05-20T01:57:02;14.30;99.90
23073;DHT22;67971;51.046;3.732;2023-05-20T01:59:28;14.20;99.90
23073;DHT22;67971;51.046;3.732;2023-05-20T02:01:54;14.10;99.90
23073;DHT22;67971;51.046;3.732;2023-05-20T02:04:19;14.10;99.90
23073;DHT22;67971;51.046;3.732;2023-05-20T02:06:47;14.30;99.90
23073;DHT22;67971;51.046;3.732;2023-05-20T02:09:13;14.30;99.90
23073;DHT22;67971;51.046;3.732;2023-05-20T02:11:39;14.30;99.90
23073;DHT22;67971;51.046;3.732;2023-05-20T02:14:05;14.20;99.90
23073;DHT22;67971;51.046;3.732;2023-05-20T02:16:30;14.20;99.90
23073;DHT22;67971;51.046;3.732;2023-05-20T02:18:56;14.10;99.90
23073;DHT22;67971;51.046;3.732;2023-05-20T02:21:23;14.10;99.90
23073;DHT22;67971;51.046;3.732;2023-05-20T02:23:50;14.20;99.90
23073;DHT22;67971;51.046;3.732;2023-05-20T02:26:16;14.20;99.90
23073;DHT22;67971;51.046;3.732;2023-05-20T02:28:42;14.00;99.90
23073;DHT22;67971;51.046;3.732;2023-05-20T02:31:11;14.00;99.90
23073;DHT22;67971;51.046;3.732;2023-05-20T02:33:37;14.00;99.90
23073;DHT22;67971;51.046;3.732;2023-05-20T02:36:03;14.10;99.90
23073;DHT22;67971;51.046;3.732;2023-05-20T02:38:29;14.00;99.90
23073;DHT22;67971;51.046;3.732;2023-05-20T02:40:56;14.10;99.90
23073;DHT22;67971;51.046;3.732;2023-05-20T02:43:24;14.10;99.90
23073;DHT22;67971;51.046;3.732;2023-05-20T02:45:50;14.10;99.90
23073;DHT22;67971;51.046;3.732;2023-05-20T02:48:16;14.20;99.90
23073;DHT22;67971;51.046;3.732;2023-05-20T02:50:42;14.10;99.90
23073;DHT22;67971;51.046;3.732;2023-05-20T02:53:08;14.20;99.90
23073;DHT22;67971;51.046;3.732;2023-05-20T02:55:35;14.10;99.90
23073;DHT22;67971;51.046;3.732;2023-05-20T02:58:00;14.20;99.90
23073;DHT22;67971;51.046;3.732;2023-05-20T03:00:26;13.90;99.90
23073;DHT22;67971;51.046;3.732;2023-05-20T03:02:55;13.90;99.90
23073;DHT22;67971;51.046;3.732;2023-05-20T03:05:20;13.90;99.90
23073;DHT22;67971;51.046;3.732;2023-05-20T03:07:47;13.90;99.90
23073;DHT22;67971;51.046;3.732;2023-05-20T03:10:13;13.80;99.90
23073;DHT22;67971;51.046;3.732;2023-05-20T03:12:39;13.70;99.90
23073;DHT22;67971;51.046;3.732;2023-05-20T03:15:05;13.70;99.90
23073;DHT22;67971;51.046;3.732;2023-05-20T03:17:31;13.70;99.90
23073;DHT22;67971;51.046;3.732;2023-05-20T03:19:57;13.70;99.90
23073;DHT22;67971;51.046;3.732;2023-05-20T03:22:23;13.80;99.90
23073;DHT22;67971;51.046;3.732;2023-05-20T03:24:48;13.80;99.90
23073;DHT22;67971;51.046;3.732;2023-05-20T03:27:14;13.80;99.90
23073;DHT22;67971;51.046;3.732;2023-05-20T03:29:40;13.70;99.90
23073;DHT22;67971;51.046;3.732;2023-05-20T03:32:06;13.70;99.90
23073;DHT22;67971;51.046;3.732;2023-05-20T03:34:32;13.60;99.90
23073;DHT22;67971;51.046;3.732;2023-05-20T03:36:57;13.60;99.90
23073;DHT22;67971;51.046;3.732;2023-05-20T03:39:24;13.70;99.90
23073;DHT22;67971;51.046;3.732;2023-05-20T03:41:50;13.70;99.90
23073;DHT22;67971;51.046;3.732;2023-05-20T03:44:16;13.70;99.90
23073;DHT22;67971;51.046;3.732;2023-05-20T03:46:42;13.60;99.90
23073;DHT22;67971;51.046;3.732;2023-05-20T03:49:07;13.50;99.90
23073;DHT22;67971;51.046;3.732;2023-05-20T03:51:33;13.60;99.90
23073;DHT22;67971;51.046;3.732;2023-05-20T03:53:58;13.60;99.90
23073;DHT22;67971;51.046;3.732;2023-05-20T03:56:25;13.50;99.90
23073;DHT22;67971;51.046;3.732;2023-05-20T03:58:51;13.50;99.90
23073;DHT22;67971;51.046;3.732;2023-05-20T04:01:16;13.40;99.90
23073;DHT22;67971;51.046;3.732;2023-05-20T04:03:42;13.60;99.90
23073;DHT22;67971;51.046;3.732;2023-05-20T04:06:08;13.60;99.90
23073;DHT22;67971;51.046;3.732;2023-05-20T04:08:34;13.50;99.90
23073;DHT22;67971;51.046;3.732;2023-05-20T04:11:02;13.60;99.90
23073;DHT22;67971;51.046;3.732;2023-05-20T04:13:28;13.60;99.90
23073;DHT22;67971;51.046;3.732;2023-05-20T04:15:54;13.60;99.90
23073;DHT22;67971;51.046;3.732;2023-05-20T04:18:20;13.60;99.90
23073;DHT22;67971;51.046;3.732;2023-05-20T04:20:47;13.60;99.90
23073;DHT22;67971;51.046;3.732;2023-05-20T04:23:13;13.60;99.90
23073;DHT22;67971;51.046;3.732;2023-05-20T04:25:38;13.70;99.90
23073;DHT22;67971;51.046;3.732;2023-05-20T04:28:06;13.60;99.90
23073;DHT22;67971;51.046;3.732;2023-05-20T04:30:33;13.60;99.90
23073;DHT22;67971;51.046;3.732;2023-05-20T04:32:59;13.70;99.90
23073;DHT22;67971;51.046;3.732;2023-05-20T04:35:27;13.70;99.90
23073;DHT22;67971;51.046;3.732;2023-05-20T04:37:54;13.70;99.90
23073;DHT22;67971;51.046;3.732;2023-05-20T04:40:20;13.70;99.90
23073;DHT22;67971;51.046;3.732;2023-05-20T04:42:46;13.70;99.90
23073;DHT22;67971;51.046;3.732;2023-05-20T04:45:12;13.80;99.90
23073;DHT22;67971;51.046;3.732;2023-05-20T04:47:38;13.70;99.90
23073;DHT22;67971;51.046;3.732;2023-05-20T04:50:09;13.70;99.90
23073;DHT22;67971;51.046;3.732;2023-05-20T04:52:41;13.70;99.90
23073;DHT22;67971;51.046;3.732;2023-05-20T04:55:08;13.80;99.90
23073;DHT22;67971;51.046;3.732;2023-05-20T04:57:35;13.70;99.90
23073;DHT22;67971;51.046;3.732;2023-05-20T05:00:03;13.70;99.90
23073;DHT22;67971;51.046;3.732;2023-05-20T05:02:32;13.80;99.90
23073;DHT22;67971;51.046;3.732;2023-05-20T05:04:58;13.70;99.90
23073;DHT22;67971;51.046;3.732;2023-05-20T05:07:23;13.80;99.90
23073;DHT22;67971;51.046;3.732;2023-05-20T05:09:49;13.80;99.90
23073;DHT22;67971;51.046;3.732;2023-05-20T05:12:15;13.90;99.90
23073;DHT22;67971;51.046;3.732;2023-05-20T05:14:41;14.00;99.90
23073;DHT22;67971;51.046;3.732;2023-05-20T05:17:06;14.10;99.90
23073;DHT22;67971;51.046;3.732;2023-05-20T05:19:32;14.10;99.90
23073;DHT22;67971;51.046;3.732;2023-05-20T05:21:58;14.00;99.90
23073;DHT22;67971;51.046;3.732;2023-05-20T05:24:23;14.10;99.90
23073;DHT22;67971;51.046;3.732;2023-05-20T05:26:53;14.10;99.90
23073;DHT22;67971;51.046;3.732;2023-05-20T05:29:19;14.20;99.90
23073;DHT22;67971;51.046;3.732;2023-05-20T05:31:44;14.30;99.90
23073;DHT22;67971;51.046;3.732;2023-05-20T05:34:10;14.30;99.90
23073;DHT22;67971;51.046;3.732;2023-05-20T05:36:38;14.40;99.90
23073;DHT22;67971;51.046;3.732;2023-05-20T05:39:04;14.40;99.90
23073;DHT22;67971;51.046;3.732;2023-05-20T05:41:30;14.40;99.90
23073;DHT22;67971;51.046;3.732;2023-05-20T05:43:57;14.40;99.90
23073;DHT22;67971;51.046;3.732;2023-05-20T05:46:23;14.50;99.90
23073;DHT22;67971;51.046;3.732;2023-05-20T05:48:49;14.60;99.90
23073;DHT22;67971;51.046;3.732;2023-05-20T05:51:15;14.80;99.90
23073;DHT22;67971;51.046;3.732;2023-05-20T05:53:41;14.80;99.90
23073;DHT22;67971;51.046;3.732;2023-05-20T05:56:08;15.10;99.90
23073;DHT22;67971;51.046;3.732;2023-05-20T05:58:33;15.40;99.90
23073;DHT22;67971;51.046;3.732;2023-05-20T06:00:59;15.80;99.90
23073;DHT22;67971;51.046;3.732;2023-05-20T06:03:25;16.30;99.90
23073;DHT22;67971;51.046;3.732;2023-05-20T06:05:51;17.00;99.90
23073;DHT22;67971;51.046;3.732;2023-05-20T06:08:17;17.60;99.90
23073;DHT22;67971;51.046;3.732;2023-05-20T06:10:47;18.00;99.90
23073;DHT22;67971;51.046;3.732;2023-05-20T06:13:13;18.30;99.90
23073;DHT22;67971;51.046;3.732;2023-05-20T06:15:39;18.50;99.90
23073;DHT22;67971;51.046;3.732;2023-05-20T06:18:05;18.70;99.90
23073;DHT22;67971;51.046;3.732;2023-05-20T06:20:31;19.10;99.90
23073;DHT22;67971;51.046;3.732;2023-05-20T06:22:56;19.10;99.90
23073;DHT22;67971;51.046;3.732;2023-05-20T06:25:22;19.20;99.90
23073;DHT22;67971;51.046;3.732;2023-05-20T06:27:48;19.10;99.90
23073;DHT22;67971;51.046;3.732;2023-05-20T06:30:14;19.40;99.90
23073;DHT22;67971;51.046;3.732;2023-05-20T06:32:40;19.90;99.90
23073;DHT22;67971;51.046;3.732;2023-05-20T06:35:06;20.10;99.90
23073;DHT22;67971;51.046;3.732;2023-05-20T06:37:32;20.40;99.90
23073;DHT22;67971;51.046;3.732;2023-05-20T06:39:58;20.60;99.90
23073;DHT22;67971;51.046;3.732;2023-05-20T06:42:24;20.80;99.90
23073;DHT22;67971;51.046;3.732;2023-05-20T06:44:49;20.90;99.90
23073;DHT22;67971;51.046;3.732;2023-05-20T06:47:16;20.90;99.90
23073;DHT22;67971;51.046;3.732;2023-05-20T06:49:44;21.20;99.90
23073;DHT22;67971;51.046;3.732;2023-05-20T06:52:10;21.30;99.90
23073;DHT22;67971;51.046;3.732;2023-05-20T06:54:39;21.00;99.90
23073;DHT22;67971;51.046;3.732;2023-05-20T06:57:09;21.20;99.90
23073;DHT22;67971;51.046;3.732;2023-05-20T06:59:38;21.10;99.90
23073;DHT22;67971;51.046;3.732;2023-05-20T07:02:04;21.00;99.90
23073;DHT22;67971;51.046;3.732;2023-05-20T07:04:30;20.90;99.90
23073;DHT22;67971;51.046;3.732;2023-05-20T07:06:56;20.80;99.90
23073;DHT22;67971;51.046;3.732;2023-05-20T07:09:21;20.80;99.90
23073;DHT22;67971;51.046;3.732;2023-05-20T07:11:48;20.80;99.90
23073;DHT22;67971;51.046;3.732;2023-05-20T07:14:14;20.80;99.90
23073;DHT22;67971;51.046;3.732;2023-05-20T07:16:40;21.00;99.90
23073;DHT22;67971;51.046;3.732;2023-05-20T07:19:06;21.10;99.90
23073;DHT22;67971;51.046;3.732;2023-05-20T07:21:31;21.10;99.90
23073;DHT22;67971;51.046;3.732;2023-05-20T07:23:57;21.30;99.90
23073;DHT22;67971;51.046;3.732;2023-05-20T07:26:22;21.30;99.90
23073;DHT22;67971;51.046;3.732;2023-05-20T07:28:48;21.40;99.90
23073;DHT22;67971;51.046;3.732;2023-05-20T07:31:14;21.50;99.90
23073;DHT22;67971;51.046;3.732;2023-05-20T07:33:40;21.60;99.90
23073;DHT22;67971;51.046;3.732;2023-05-20T07:36:05;21.80;99.90
23073;DHT22;67971;51.046;3.732;2023-05-20T07:38:31;22.30;99.90
23073;DHT22;67971;51.046;3.732;2023-05-20T07:40:57;22.00;99.90
23073;DHT22;67971;51.046;3.732;2023-05-20T07:43:22;22.20;99.90
23073;DHT22;67971;51.046;3.732;2023-05-20T07:45:48;22.80;99.90
23073;DHT22;67971;51.046;3.732;2023-05-20T07:48:14;23.10;99.90
23073;DHT22;67971;51.046;3.732;2023-05-20T07:50:40;23.50;99.90
23073;DHT22;67971;51.046;3.732;2023-05-20T07:53:06;23.80;99.90
23073;DHT22;67971;51.046;3.732;2023-05-20T07:55:35;24.30;99.90
23073;DHT22;67971;51.046;3.732;2023-05-20T07:58:01;24.40;99.90
23073;DHT22;67971;51.046;3.732;2023-05-20T08:00:27;24.80;99.90
23073;DHT22;67971;51.046;3.732;2023-05-20T08:02:53;25.00;99.90
23073;DHT22;67971;51.046;3.732;2023-05-20T08:05:19;25.50;99.90
23073;DHT22;67971;51.046;3.732;2023-05-20T08:07:44;25.70;99.90
23073;DHT22;67971;51.046;3.732;2023-05-20T08:10:10;25.60;99.90
23073;DHT22;67971;51.046;3.732;2023-05-20T08:12:36;25.70;99.90
23073;DHT22;67971;51.046;3.732;2023-05-20T08:15:03;26.80;99.90
23073;DHT22;67971;51.046;3.732;2023-05-20T08:17:29;27.10;99.90
23073;DHT22;67971;51.046;3.732;2023-05-20T08:19:54;26.80;99.90
23073;DHT22;67971;51.046;3.732;2023-05-20T08:22:20;27.40;99.90
23073;DHT22;67971;51.046;3.732;2023-05-20T08:24:46;27.80;99.80
23073;DHT22;67971;51.046;3.732;2023-05-20T08:27:11;27.60;99.40
23073;DHT22;67971;51.046;3.732;2023-05-20T08:29:37;28.10;97.70
23073;DHT22;67971;51.046;3.732;2023-05-20T08:32:03;28.10;97.30
23073;DHT22;67971;51.046;3.732;2023-05-20T08:34:29;28.30;97.50
23073;DHT22;67971;51.046;3.732;2023-05-20T08:36:55;28.30;97.40
23073;DHT22;67971;51.046;3.732;2023-05-20T08:39:22;28.50;97.20
23073;DHT22;67971;51.046;3.732;2023-05-20T08:41:48;28.70;97.10
23073;DHT22;67971;51.046;3.732;2023-05-20T08:44:16;29.30;96.40
23073;DHT22;67971;51.046;3.732;2023-05-20T08:46:44;29.60;94.90
23073;DHT22;67971;51.046;3.732;2023-05-20T08:49:10;29.60;94.80
23073;DHT22;67971;51.046;3.732;2023-05-20T08:51:37;30.00;94.50
23073;DHT22;67971;51.046;3.732;2023-05-20T08:54:03;30.20;93.90
23073;DHT22;67971;51.046;3.732;2023-05-20T08:56:30;30.40;93.80
23073;DHT22;67971;51.046;3.732;2023-05-20T08:58:56;30.70;92.90
23073;DHT22;67971;51.046;3.732;2023-05-20T09:01:24;31.00;92.60
23073;DHT22;67971;51.046;3.732;2023-05-20T09:03:50;31.10;91.90
23073;DHT22;67971;51.046;3.732;2023-05-20T09:06:17;31.20;91.90
23073;DHT22;67971;51.046;3.732;2023-05-20T09:08:44;31.50;91.20
23073;DHT22;67971;51.046;3.732;2023-05-20T09:11:11;32.00;91.30
23073;DHT22;67971;51.046;3.732;2023-05-20T09:13:37;31.90;90.60
23073;DHT22;67971;51.046;3.732;2023-05-20T09:16:03;31.90;90.30
23073;DHT22;67971;51.046;3.732;2023-05-20T09:18:29;31.60;90.20
23073;DHT22;67971;51.046;3.732;2023-05-20T09:20:54;31.30;90.00
23073;DHT22;67971;51.046;3.732;2023-05-20T09:23:20;31.70;90.90
23073;DHT22;67971;51.046;3.732;2023-05-20T09:25:48;32.00;89.00
23073;DHT22;67971;51.046;3.732;2023-05-20T09:28:18;31.50;89.60
23073;DHT22;67971;51.046;3.732;2023-05-20T09:30:44;31.00;88.00
23073;DHT22;67971;51.046;3.732;2023-05-20T09:33:10;29.40;90.00
23073;DHT22;67971;51.046;3.732;2023-05-20T09:35:36;29.00;91.30
23073;DHT22;67971;51.046;3.732;2023-05-20T09:38:04;28.80;91.30
23073;DHT22;67971;51.046;3.732;2023-05-20T09:40:30;28.50;91.10
23073;DHT22;67971;51.046;3.732;2023-05-20T09:43:00;28.00;91.90
23073;DHT22;67971;51.046;3.732;2023-05-20T09:45:27;28.60;91.90
23073;DHT22;67971;51.046;3.732;2023-05-20T09:47:53;29.40;91.50
23073;DHT22;67971;51.046;3.732;2023-05-20T09:50:21;29.70;90.70
23073;DHT22;67971;51.046;3.732;2023-05-20T09:52:49;29.70;90.50
23073;DHT22;67971;51.046;3.732;2023-05-20T09:55:16;30.50;90.30
23073;DHT22;67971;51.046;3.732;2023-05-20T09:57:42;30.90;87.80
23073;DHT22;67971;51.046;3.732;2023-05-20T10:00:08;31.30;87.00
23073;DHT22;67971;51.046;3.732;2023-05-20T10:02:36;32.10;87.20
23073;DHT22;67971;51.046;3.732;2023-05-20T10:05:05;32.60;86.30
23073;DHT22;67971;51.046;3.732;2023-05-20T10:19:31;30.40;83.90
23073;DHT22;67971;51.046;3.732;2023-05-20T10:22:00;29.60;84.50
23073;DHT22;67971;51.046;3.732;2023-05-20T10:27:01;29.80;86.50
23073;DHT22;67971;51.046;3.732;2023-05-20T10:29:28;30.70;85.00
23073;DHT22;67971;51.046;3.732;2023-05-20T10:31:54;30.90;84.60
23073;DHT22;67971;51.046;3.732;2023-05-20T10:34:21;30.80;84.20
23073;DHT22;67971;51.046;3.732;2023-05-20T10:39:27;30.70;82.90
23073;DHT22;67971;51.046;3.732;2023-05-20T10:42:07;30.40;85.00
23073;DHT22;67971;51.046;3.732;2023-05-20T10:44:42;31.00;82.70
23073;DHT22;67971;51.046;3.732;2023-05-20T10:47:09;31.70;81.30
23073;DHT22;67971;51.046;3.732;2023-05-20T10:49:35;32.60;79.10
23073;DHT22;67971;51.046;3.732;2023-05-20T10:52:07;33.30;78.60
23073;DHT22;67971;51.046;3.732;2023-05-20T10:54:35;33.50;77.90
23073;DHT22;67971;51.046;3.732;2023-05-20T10:57:05;33.50;75.80
23073;DHT22;67971;51.046;3.732;2023-05-20T10:59:32;33.10;76.10
23073;DHT22;67971;51.046;3.732;2023-05-20T11:02:00;33.40;74.90
23073;DHT22;67971;51.046;3.732;2023-05-20T11:04:28;32.40;75.70
23073;DHT22;67971;51.046;3.732;2023-05-20T11:06:54;31.80;76.20
23073;DHT22;67971;51.046;3.732;2023-05-20T11:09:20;31.50;75.90
23073;DHT22;67971;51.046;3.732;2023-05-20T11:11:46;31.70;76.10
23073;DHT22;67971;51.046;3.732;2023-05-20T11:14:12;31.90;76.60
23073;DHT22;67971;51.046;3.732;2023-05-20T11:16:40;32.50;74.80
23073;DHT22;67971;51.046;3.732;2023-05-20T11:19:07;32.80;75.40
23073;DHT22;67971;51.046;3.732;2023-05-20T11:21:33;33.40;74.70
23073;DHT22;67971;51.046;3.732;2023-05-20T11:23:59;34.00;74.40
23073;DHT22;67971;51.046;3.732;2023-05-20T11:26:25;33.90;73.80
23073;DHT22;67971;51.046;3.732;2023-05-20T11:28:51;34.60;72.20
23073;DHT22;67971;51.046;3.732;2023-05-20T11:31:17;34.70;72.10
23073;DHT22;67971;51.046;3.732;2023-05-20T11:33:43;33.50;71.90
23073;DHT22;67971;51.046;3.732;2023-05-20T11:36:09;32.70;72.90
23073;DHT22;67971;51.046;3.732;2023-05-20T11:38:40;32.30;74.30
23073;DHT22;67971;51.046;3.732;2023-05-20T11:41:06;32.50;73.30
23073;DHT22;67971;51.046;3.732;2023-05-20T11:43:32;32.70;72.50
23073;DHT22;67971;51.046;3.732;2023-05-20T11:45:58;32.30;72.20
23073;DHT22;67971;51.046;3.732;2023-05-20T11:48:24;32.40;73.10
23073;DHT22;67971;51.046;3.732;2023-05-20T11:50:53;32.70;72.80
23073;DHT22;67971;51.046;3.732;2023-05-20T11:53:21;32.80;73.10
23073;DHT22;67971;51.046;3.732;2023-05-20T11:55:52;33.10;72.40
23073;DHT22;67971;51.046;3.732;2023-05-20T11:58:23;33.20;71.30
23073;DHT22;67971;51.046;3.732;2023-05-20T12:00:49;33.00;72.30
23073;DHT22;67971;51.046;3.732;2023-05-20T12:03:15;33.60;72.50
23073;DHT22;67971;51.046;3.732;2023-05-20T12:05:42;33.50;71.70
23073;DHT22;67971;51.046;3.732;2023-05-20T12:08:07;33.50;70.20
23073;DHT22;67971;51.046;3.732;2023-05-20T12:10:33;33.20;69.70
23073;DHT22;67971;51.046;3.732;2023-05-20T12:12:59;33.40;70.90
23073;DHT22;67971;51.046;3.732;2023-05-20T12:15:25;34.10;71.10
23073;DHT22;67971;51.046;3.732;2023-05-20T12:17:52;34.00;70.20
23073;DHT22;67971;51.046;3.732;2023-05-20T12:20:22;34.30;71.20
23073;DHT22;67971;51.046;3.732;2023-05-20T12:22:48;35.40;69.00
23073;DHT22;67971;51.046;3.732;2023-05-20T12:25:16;35.70;69.40
23073;DHT22;67971;51.046;3.732;2023-05-20T12:27:42;36.00;67.40
23073;DHT22;67971;51.046;3.732;2023-05-20T12:30:19;36.30;68.30
23073;DHT22;67971;51.046;3.732;2023-05-20T12:32:45;34.70;64.40
23073;DHT22;67971;51.046;3.732;2023-05-20T12:35:12;34.20;67.50
23073;DHT22;67971;51.046;3.732;2023-05-20T12:37:38;33.80;69.20
23073;DHT22;67971;51.046;3.732;2023-05-20T12:40:06;33.20;68.10
23073;DHT22;67971;51.046;3.732;2023-05-20T12:42:37;33.70;71.30
23073;DHT22;67971;51.046;3.732;2023-05-20T12:45:03;34.20;69.70
23073;DHT22;67971;51.046;3.732;2023-05-20T12:47:33;34.40;69.10
23073;DHT22;67971;51.046;3.732;2023-05-20T12:49:59;33.60;68.80
23073;DHT22;67971;51.046;3.732;2023-05-20T12:52:25;33.60;69.60
23073;DHT22;67971;51.046;3.732;2023-05-20T12:54:53;32.90;68.90
23073;DHT22;67971;51.046;3.732;2023-05-20T12:57:18;31.60;71.10
23073;DHT22;67971;51.046;3.732;2023-05-20T12:59:44;31.80;73.10
23073;DHT22;67971;51.046;3.732;2023-05-20T13:02:10;32.30;70.70
23073;DHT22;67971;51.046;3.732;2023-05-20T13:04:36;32.50;70.20
23073;DHT22;67971;51.046;3.732;2023-05-20T13:07:02;33.30;70.50
23073;DHT22;67971;51.046;3.732;2023-05-20T13:09:28;34.00;70.80
23073;DHT22;67971;51.046;3.732;2023-05-20T13:11:54;33.80;68.60
23073;DHT22;67971;51.046;3.732;2023-05-20T13:14:19;34.50;69.70
23073;DHT22;67971;51.046;3.732;2023-05-20T13:16:46;35.10;68.10
23073;DHT22;67971;51.046;3.732;2023-05-20T13:19:12;35.50;68.50
23073;DHT22;67971;51.046;3.732;2023-05-20T13:21:38;35.40;67.40
23073;DHT22;67971;51.046;3.732;2023-05-20T13:24:04;35.50;67.90
23073;DHT22;67971;51.046;3.732;2023-05-20T13:26:30;35.30;67.30
23073;DHT22;67971;51.046;3.732;2023-05-20T13:28:55;35.10;67.00
23073;DHT22;67971;51.046;3.732;2023-05-20T13:31:21;35.00;68.00
23073;DHT22;67971;51.046;3.732;2023-05-20T13:33:47;35.30;67.30
23073;DHT22;67971;51.046;3.732;2023-05-20T13:36:13;35.10;65.80
23073;DHT22;67971;51.046;3.732;2023-05-20T13:38:38;34.70;67.10
23073;DHT22;67971;51.046;3.732;2023-05-20T13:41:04;33.90;68.50
23073;DHT22;67971;51.046;3.732;2023-05-20T13:43:30;33.10;70.10
23073;DHT22;67971;51.046;3.732;2023-05-20T13:45:57;33.10;69.40
23073;DHT22;67971;51.046;3.732;2023-05-20T13:48:23;33.70;70.20
23073;DHT22;67971;51.046;3.732;2023-05-20T13:50:49;33.50;70.00
23073;DHT22;67971;51.046;3.732;2023-05-20T13:53:14;33.90;69.60
23073;DHT22;67971;51.046;3.732;2023-05-20T13:55:40;33.90;69.00
23073;DHT22;67971;51.046;3.732;2023-05-20T13:58:06;33.80;67.70
23073;DHT22;67971;51.046;3.732;2023-05-20T14:00:36;32.80;69.50
23073;DHT22;67971;51.046;3.732;2023-05-20T14:03:02;33.10;69.10
23073;DHT22;67971;51.046;3.732;2023-05-20T14:05:33;33.10;69.40
23073;DHT22;67971;51.046;3.732;2023-05-20T14:08:00;32.70;70.60
23073;DHT22;67971;51.046;3.732;2023-05-20T14:10:26;32.10;71.40
23073;DHT22;67971;51.046;3.732;2023-05-20T14:12:53;31.30;73.20
23073;DHT22;67971;51.046;3.732;2023-05-20T14:15:19;30.50;74.60
23073;DHT22;67971;51.046;3.732;2023-05-20T14:17:45;30.40;74.60
23073;DHT22;67971;51.046;3.732;2023-05-20T14:20:11;30.20;74.40
23073;DHT22;67971;51.046;3.732;2023-05-20T14:22:36;29.50;74.90
23073;DHT22;67971;51.046;3.732;2023-05-20T14:25:02;29.40;75.50
23073;DHT22;67971;51.046;3.732;2023-05-20T14:27:28;29.60;75.00
23073;DHT22;67971;51.046;3.732;2023-05-20T14:29:54;29.40;75.60
23073;DHT22;67971;51.046;3.732;2023-05-20T14:32:20;29.00;77.10
23073;DHT22;67971;51.046;3.732;2023-05-20T14:34:46;28.60;78.20
23073;DHT22;67971;51.046;3.732;2023-05-20T14:37:11;28.10;79.00
23073;DHT22;67971;51.046;3.732;2023-05-20T14:39:38;27.60;79.00
23073;DHT22;67971;51.046;3.732;2023-05-20T14:42:04;27.20;80.90
23073;DHT22;67971;51.046;3.732;2023-05-20T14:44:30;27.50;80.30
23073;DHT22;67971;51.046;3.732;2023-05-20T14:46:56;27.40;80.60
23073;DHT22;67971;51.046;3.732;2023-05-20T14:49:22;27.70;80.90
23073;DHT22;67971;51.046;3.732;2023-05-20T14:51:47;27.70;80.90
23073;DHT22;67971;51.046;3.732;2023-05-20T14:54:13;27.40;80.60
23073;DHT22;67971;51.046;3.732;2023-05-20T14:56:41;27.00;80.90
23073;DHT22;67971;51.046;3.732;2023-05-20T14:59:06;26.90;81.60
23073;DHT22;67971;51.046;3.732;2023-05-20T15:01:33;26.70;82.00
23073;DHT22;67971;51.046;3.732;2023-05-20T15:03:58;26.60;81.50
23073;DHT22;67971;51.046;3.732;2023-05-20T15:06:24;26.70;83.40
23073;DHT22;67971;51.046;3.732;2023-05-20T15:08:50;27.30;82.30
23073;DHT22;67971;51.046;3.732;2023-05-20T15:11:16;28.30;80.60
23073;DHT22;67971;51.046;3.732;2023-05-20T15:13:42;27.80;80.30
23073;DHT22;67971;51.046;3.732;2023-05-20T15:16:11;27.40;80.90
23073;DHT22;67971;51.046;3.732;2023-05-20T15:18:36;27.00;82.20
23073;DHT22;67971;51.046;3.732;2023-05-20T15:21:02;26.70;84.00
23073;DHT22;67971;51.046;3.732;2023-05-20T15:23:28;26.50;83.60
23073;DHT22;67971;51.046;3.732;2023-05-20T15:25:54;26.10;84.20
23073;DHT22;67971;51.046;3.732;2023-05-20T15:28:22;25.60;83.80
23073;DHT22;67971;51.046;3.732;2023-05-20T15:30:52;25.30;85.30
23073;DHT22;67971;51.046;3.732;2023-05-20T15:33:19;25.20;85.50
23073;DHT22;67971;51.046;3.732;2023-05-20T15:35:45;25.40;87.00
23073;DHT22;67971;51.046;3.732;2023-05-20T15:38:10;25.50;86.90
23073;DHT22;67971;51.046;3.732;2023-05-20T15:40:36;25.90;87.40
23073;DHT22;67971;51.046;3.732;2023-05-20T15:43:02;26.20;86.50